Time;durP1;ratioP1;P1;durP2;ratioP2;P2;SDS_P1;SDS_P2;PMS_P1;PMS_P2;Temp;Humidity;BMP_temperature;BMP_pressure;BME280_temperature;BME280_humidity;BME280_pressure;Samples;Min_cycle;Max_cycle;Signal;HPM_P1;HPM_P2
2024/01/19 00:01:22;;;;;;;2.53;1.85;;;-1.40;99.90;;;;;;4876211;28;20026;-87
2024/01/19 00:03:48;;;;;;;4.28;1.80;;;-1.30;99.90;;;;;;4885025;28;21396;-86
2024/01/19 00:06:14;;;;;;;3.55;2.20;;;-1.30;99.90;;;;;;4922750;28;20026;-86
2024/01/19 00:08:40;;;;;;;5.53;2.45;;;-1.30;99.90;;;;;;4885249;28;20158;-85
2024/01/19 00:11:11;;;;;;;3.10;2.78;;;-1.40;99.90;;;;;;4898066;28;20594;-85
2024/01/19 00:13:37;;;;;;;4.00;3.17;;;-1.40;99.90;;;;;;4917066;28;20034;-87
2024/01/19 00:16:03;;;;;;;5.88;3.05;;;-1.40;99.90;;;;;;4884120;28;20027;-85
2024/01/19 00:18:31;;;;;;;5.35;2.90;;;-1.50;99.90;;;;;;4883461;28;20487;-89
2024/01/19 00:20:56;;;;;;;5.85;3.35;;;-1.50;99.90;;;;;;4917295;28;20443;-86
2024/01/19 00:23:22;;;;;;;10.40;4.00;;;-1.50;99.90;;;;;;4878290;28;21473;-87
2024/01/19 00:25:47;;;;;;;4.60;3.10;;;-1.50;99.90;;;;;;4909959;28;20418;-86
2024/01/19 00:28:13;;;;;;;4.05;2.85;;;-1.50;99.90;;;;;;4867268;28;20050;-86
2024/01/19 00:30:38;;;;;;;2.58;2.38;;;-1.50;99.90;;;;;;4878879;28;20034;-87
2024/01/19 00:33:04;;;;;;;3.65;2.65;;;-1.50;99.90;;;;;;4926930;28;20046;-85
2024/01/19 00:35:31;;;;;;;2.63;2.40;;;-1.40;99.90;;;;;;4882771;28;20468;-86
2024/01/19 00:37:56;;;;;;;2.83;2.47;;;-1.40;99.90;;;;;;4894744;28;20057;-88
2024/01/19 00:40:22;;;;;;;3.33;2.10;;;-1.30;99.90;;;;;;4876064;28;20039;-85
2024/01/19 00:42:48;;;;;;;2.40;1.85;;;-1.30;99.90;;;;;;4883056;28;21391;-86
2024/01/19 00:45:13;;;;;;;2.95;2.38;;;-1.30;99.90;;;;;;4919568;28;20668;-85
2024/01/19 00:47:39;;;;;;;4.50;2.42;;;-1.20;99.90;;;;;;4893862;28;20073;-88
2024/01/19 00:50:06;;;;;;;3.28;2.13;;;-1.20;99.90;;;;;;4882081;28;20098;-90
2024/01/19 00:52:32;;;;;;;2.50;2.13;;;-1.10;99.90;;;;;;4914240;28;20042;-87
2024/01/19 00:54:58;;;;;;;3.30;2.75;;;-1.10;99.90;;;;;;4878694;28;20035;-86
2024/01/19 00:57:23;;;;;;;4.45;2.33;;;-1.10;99.90;;;;;;4899129;28;20027;-90
2024/01/19 00:59:49;;;;;;;4.72;2.58;;;-1.10;99.90;;;;;;4913938;28;20042;-87
2024/01/19 01:02:14;;;;;;;3.50;1.95;;;-1.10;99.90;;;;;;4853898;28;21360;-87
2024/01/19 01:04:40;;;;;;;3.17;2.45;;;-1.20;99.90;;;;;;4925995;28;20050;-85
2024/01/19 01:07:06;;;;;;;3.22;2.33;;;-1.10;99.90;;;;;;4873345;28;20023;-87
2024/01/19 01:09:31;;;;;;;3.28;2.38;;;-1.20;99.90;;;;;;4885878;28;20050;-88
2024/01/19 01:11:57;;;;;;;3.17;2.15;;;-1.20;99.90;;;;;;4930105;28;20759;-90
2024/01/19 01:14:22;;;;;;;2.60;2.03;;;-1.20;99.90;;;;;;4867116;28;21921;-89
2024/01/19 01:16:48;;;;;;;2.17;1.92;;;-1.20;99.90;;;;;;4905642;28;20443;-87
2024/01/19 01:19:13;;;;;;;4.68;1.50;;;-1.20;99.90;;;;;;4865198;28;20050;-88
2024/01/19 01:21:39;;;;;;;2.00;1.50;;;-1.20;99.90;;;;;;4866900;28;20391;-86
2024/01/19 01:24:05;;;;;;;1.73;1.50;;;-1.20;99.90;;;;;;4929604;28;20404;-88
2024/01/19 01:26:30;;;;;;;3.28;1.58;;;-1.10;99.90;;;;;;4875086;28;20022;-86
2024/01/19 01:28:56;;;;;;;1.45;1.35;;;-1.10;99.90;;;;;;4904804;28;21108;-87
2024/01/19 01:31:22;;;;;;;1.98;1.60;;;-1.10;99.90;;;;;;4883672;28;20023;-86
2024/01/19 01:33:48;;;;;;;1.73;1.25;;;-1.10;99.90;;;;;;4861970;28;21385;-88
2024/01/19 01:36:14;;;;;;;2.13;1.27;;;-1.10;99.90;;;;;;4931778;28;20177;-86
2024/01/19 01:38:39;;;;;;;3.17;1.17;;;-1.00;99.90;;;;;;4862300;28;20057;-86
2024/01/19 01:41:05;;;;;;;3.35;1.45;;;-1.00;99.90;;;;;;4858253;28;20061;-87
2024/01/19 01:43:30;;;;;;;3.90;1.88;;;-1.00;99.90;;;;;;4906056;28;20122;-87
2024/01/19 01:45:57;;;;;;;1.70;1.30;;;-1.00;99.90;;;;;;4878955;28;20027;-89
2024/01/19 01:48:24;;;;;;;5.57;1.98;;;-1.00;99.90;;;;;;4887628;28;20019;-91
2024/01/19 01:50:50;;;;;;;3.53;1.38;;;-1.00;99.90;;;;;;4878443;28;20061;-88
2024/01/19 01:53:18;;;;;;;3.20;1.42;;;-0.90;99.90;;;;;;4870049;28;21162;-86
2024/01/19 01:55:44;;;;;;;3.60;1.75;;;-1.00;99.90;;;;;;4926196;28;20419;-86
2024/01/19 01:58:10;;;;;;;3.20;1.73;;;-1.00;99.90;;;;;;4886479;28;20026;-87
2024/01/19 02:00:36;;;;;;;2.17;1.60;;;-1.00;99.90;;;;;;4883578;28;20065;-86
2024/01/19 02:03:03;;;;;;;2.08;1.50;;;-1.00;99.90;;;;;;4923209;28;20477;-85
2024/01/19 02:05:29;;;;;;;2.60;1.75;;;-1.00;99.90;;;;;;4872114;28;20427;-87
2024/01/19 02:07:54;;;;;;;1.90;1.63;;;-1.00;99.90;;;;;;4913885;28;20023;-90
2024/01/19 02:10:20;;;;;;;2.65;2.17;;;-1.00;99.90;;;;;;4882272;28;20109;-88
2024/01/19 02:12:46;;;;;;;3.45;1.88;;;-1.00;99.90;;;;;;4886886;28;21176;-88
2024/01/19 02:15:20;;;;;;;3.47;1.80;;;-1.10;99.90;;;;;;4912633;28;20502;-86
2024/01/19 02:17:45;;;;;;;3.33;1.83;;;-1.10;99.90;;;;;;4871602;28;20023;-89
2024/01/19 02:20:11;;;;;;;4.95;1.92;;;-1.20;99.90;;;;;;4879485;28;20499;-85
2024/01/19 02:22:39;;;;;;;3.78;2.28;;;-1.10;99.90;;;;;;4905814;28;20042;-86
2024/01/19 02:25:05;;;;;;;2.97;2.10;;;-1.10;99.90;;;;;;4882065;28;20758;-85
2024/01/19 02:27:32;;;;;;;2.72;1.67;;;-1.20;99.90;;;;;;4886144;28;20023;-88
2024/01/19 02:29:58;;;;;;;3.67;1.80;;;-1.20;99.90;;;;;;4930691;28;20085;-84
2024/01/19 02:32:23;;;;;;;5.57;1.95;;;-1.20;99.90;;;;;;4881629;28;20673;-85
2024/01/19 02:34:49;;;;;;;2.17;1.83;;;-1.20;99.90;;;;;;4927091;28;20062;-84
2024/01/19 02:37:15;;;;;;;5.53;1.70;;;-1.20;99.90;;;;;;4850610;28;20037;-85
2024/01/19 02:39:41;;;;;;;3.05;1.88;;;-1.20;99.90;;;;;;4897136;28;21541;-87
2024/01/19 02:42:08;;;;;;;3.28;2.00;;;-1.20;99.90;;;;;;4920009;28;20507;-86
2024/01/19 02:44:33;;;;;;;6.15;1.80;;;-1.20;99.90;;;;;;4886023;28;20105;-84
2024/01/19 02:46:59;;;;;;;3.97;1.27;;;-1.20;99.90;;;;;;4891850;28;20554;-88
2024/01/19 02:49:24;;;;;;;2.55;1.60;;;-1.20;99.90;;;;;;4893332;28;20027;-86
2024/01/19 02:51:50;;;;;;;1.92;1.48;;;-1.20;99.90;;;;;;4876256;28;21459;-84
2024/01/19 02:54:16;;;;;;;4.05;1.63;;;-1.20;99.90;;;;;;4932188;28;20081;-84
2024/01/19 02:56:41;;;;;;;2.88;1.20;;;-1.20;99.90;;;;;;4872787;28;20101;-85
2024/01/19 02:59:08;;;;;;;4.65;1.38;;;-1.20;99.90;;;;;;4880719;28;20133;-84
2024/01/19 03:01:33;;;;;;;4.50;1.67;;;-1.20;99.90;;;;;;4931819;28;20114;-86
2024/01/19 03:03:59;;;;;;;1.95;1.05;;;-1.20;99.90;;;;;;4867191;28;20031;-86
2024/01/19 03:06:25;;;;;;;1.73;1.20;;;-1.10;99.90;;;;;;4908292;28;20118;-87
2024/01/19 03:08:50;;;;;;;1.30;0.93;;;-1.10;99.90;;;;;;4908637;28;20151;-85
2024/01/19 03:11:16;;;;;;;2.25;0.95;;;-1.10;99.90;;;;;;4863485;28;21271;-84
2024/01/19 03:13:41;;;;;;;3.67;1.27;;;-1.00;99.90;;;;;;4965420;28;20031;-86
2024/01/19 03:16:07;;;;;;;0.95;0.90;;;-1.00;99.90;;;;;;4915949;28;20031;-87
2024/01/19 03:18:33;;;;;;;2.08;1.20;;;-1.00;99.90;;;;;;4915584;28;20027;-87
2024/01/19 03:20:58;;;;;;;5.57;1.15;;;-1.00;99.90;;;;;;4921980;28;20503;-85
2024/01/19 03:23:24;;;;;;;2.42;1.30;;;-1.00;99.90;;;;;;4923864;28;20027;-86
2024/01/19 03:25:51;;;;;;;2.28;1.02;;;-1.00;99.90;;;;;;4955937;28;20018;-84
2024/01/19 03:28:16;;;;;;;4.75;1.35;;;-1.00;99.90;;;;;;4888002;28;20031;-84
2024/01/19 03:30:42;;;;;;;3.25;1.02;;;-1.00;99.90;;;;;;4915890;28;20113;-85
2024/01/19 03:33:07;;;;;;;2.42;1.10;;;-1.00;99.90;;;;;;4906985;28;20031;-85
2024/01/19 03:35:33;;;;;;;1.75;0.90;;;-0.90;99.90;;;;;;4896908;28;20057;-85
2024/01/19 03:37:59;;;;;;;1.42;1.02;;;-0.90;99.90;;;;;;4907063;28;20027;-88
2024/01/19 03:40:24;;;;;;;0.88;0.85;;;-0.90;99.90;;;;;;4932390;28;20038;-84
2024/01/19 03:42:50;;;;;;;2.22;1.42;;;-0.90;99.90;;;;;;4924731;28;20030;-84
2024/01/19 03:45:15;;;;;;;1.02;0.95;;;-0.90;99.90;;;;;;4881494;28;20471;-86
2024/01/19 03:47:41;;;;;;;2.92;0.95;;;-0.90;99.90;;;;;;4871659;28;20038;-85
2024/01/19 03:50:08;;;;;;;1.95;0.95;;;-0.90;99.90;;;;;;4896456;28;20031;-87
2024/01/19 03:52:34;;;;;;;2.60;1.02;;;-0.90;99.90;;;;;;4949058;28;21468;-86
2024/01/19 03:55:00;;;;;;;3.05;1.08;;;-0.90;99.90;;;;;;4922720;28;20038;-88
2024/01/19 03:57:26;;;;;;;1.25;0.80;;;-0.90;99.90;;;;;;4905041;28;20019;-86
2024/01/19 03:59:51;;;;;;;1.38;0.93;;;-0.90;99.90;;;;;;4897538;28;20045;-85
2024/01/19 04:02:17;;;;;;;1.85;1.30;;;-0.90;99.90;;;;;;4886610;28;21311;-88
2024/01/19 04:04:43;;;;;;;3.13;1.20;;;-0.90;99.90;;;;;;4941642;28;21770;-87
2024/01/19 04:07:09;;;;;;;1.08;0.93;;;-0.90;99.90;;;;;;4934458;28;20054;-85
2024/01/19 04:09:35;;;;;;;2.13;1.30;;;-0.80;99.90;;;;;;4891163;28;20451;-86
2024/01/19 04:12:10;;;;;;;2.75;1.25;;;-0.90;99.90;;;;;;4878988;28;20023;-91
2024/01/19 04:14:35;;;;;;;5.20;1.37;;;-0.90;99.90;;;;;;4901630;28;20015;-88
2024/01/19 04:17:02;;;;;;;3.30;1.73;;;-0.90;99.90;;;;;;4914491;28;20354;-89
2024/01/19 04:19:27;;;;;;;7.43;1.10;;;-0.90;99.90;;;;;;4928303;28;20039;-89
2024/01/19 04:21:53;;;;;;;4.60;1.48;;;-0.90;99.90;;;;;;4910731;28;20376;-85
2024/01/19 04:24:19;;;;;;;1.80;1.02;;;-0.90;99.90;;;;;;4891491;28;20023;-85
2024/01/19 04:26:44;;;;;;;2.08;1.23;;;-0.90;99.90;;;;;;4863004;28;20038;-85
2024/01/19 04:29:10;;;;;;;1.83;1.23;;;-0.90;99.90;;;;;;4905269;28;20031;-85
2024/01/19 04:31:35;;;;;;;2.00;1.17;;;-0.90;99.90;;;;;;4931979;28;20027;-85
2024/01/19 04:34:01;;;;;;;2.03;1.63;;;-0.80;99.90;;;;;;4919170;28;20390;-85
2024/01/19 04:36:26;;;;;;;2.00;1.33;;;-0.80;99.90;;;;;;4870088;28;20038;-87
2024/01/19 04:38:52;;;;;;;0.85;0.73;;;-0.80;99.90;;;;;;4893357;28;20039;-86
2024/01/19 04:41:18;;;;;;;1.08;1.00;;;-0.80;99.90;;;;;;4894368;28;21118;-89
2024/01/19 04:43:44;;;;;;;3.47;1.13;;;-0.80;99.90;;;;;;4931643;28;21290;-85
2024/01/19 04:46:09;;;;;;;1.35;1.10;;;-0.80;99.90;;;;;;4925172;28;20037;-86
2024/01/19 04:48:35;;;;;;;1.15;0.90;;;-0.80;99.90;;;;;;4883827;28;20058;-86
2024/01/19 04:51:00;;;;;;;2.03;0.80;;;-0.80;99.90;;;;;;4892086;28;20027;-86
2024/01/19 04:53:26;;;;;;;1.50;0.80;;;-0.80;99.90;;;;;;4921377;28;20030;-87
2024/01/19 04:55:51;;;;;;;2.72;0.90;;;-0.80;99.90;;;;;;4922097;28;20042;-86
2024/01/19 04:58:17;;;;;;;1.25;1.00;;;-0.70;99.90;;;;;;4961358;28;20529;-89
2024/01/19 05:00:42;;;;;;;3.22;1.10;;;-0.70;99.90;;;;;;4919292;28;20034;-86
2024/01/19 05:03:08;;;;;;;2.60;0.80;;;-0.70;99.90;;;;;;4918873;28;20027;-86
2024/01/19 05:05:33;;;;;;;3.63;1.27;;;-0.70;99.90;;;;;;4921806;28;20027;-85
2024/01/19 05:08:00;;;;;;;1.80;0.70;;;-0.70;99.90;;;;;;4920437;28;20030;-88
2024/01/19 05:10:26;;;;;;;6.07;1.05;;;-0.70;99.90;;;;;;4927339;28;20086;-88
2024/01/19 05:12:51;;;;;;;5.78;1.23;;;-0.70;99.90;;;;;;4933864;28;20050;-89
2024/01/19 05:15:17;;;;;;;3.25;0.93;;;-0.70;99.90;;;;;;4905205;28;20202;-89
2024/01/19 05:17:42;;;;;;;4.28;1.50;;;-0.70;99.90;;;;;;4919075;28;20027;-85
2024/01/19 05:20:09;;;;;;;4.05;1.35;;;-0.70;99.90;;;;;;4906866;28;20121;-89
2024/01/19 05:22:34;;;;;;;2.33;1.13;;;-0.70;99.90;;;;;;4922209;28;20087;-89
2024/01/19 05:25:01;;;;;;;6.03;1.48;;;-0.70;99.90;;;;;;4953305;28;20022;-86
2024/01/19 05:27:27;;;;;;;3.05;0.98;;;-0.70;99.90;;;;;;4915274;28;21287;-89
2024/01/19 05:29:52;;;;;;;1.63;1.13;;;-0.70;99.90;;;;;;4933805;28;20038;-86
2024/01/19 05:32:18;;;;;;;3.83;1.00;;;-0.80;99.90;;;;;;4907886;28;20270;-86
2024/01/19 05:34:44;;;;;;;3.33;1.50;;;-0.80;99.90;;;;;;4912300;28;20850;-85
2024/01/19 05:37:09;;;;;;;2.72;1.08;;;-0.80;99.90;;;;;;4943561;28;20023;-85
2024/01/19 05:39:35;;;;;;;3.05;1.33;;;-0.80;99.90;;;;;;4891693;28;20034;-88
2024/01/19 05:42:01;;;;;;;2.97;1.15;;;-0.70;99.90;;;;;;4890021;28;20031;-90
2024/01/19 05:44:26;;;;;;;1.77;1.17;;;-0.80;99.90;;;;;;4925208;28;20022;-86
2024/01/19 05:46:52;;;;;;;2.33;0.95;;;-0.70;99.90;;;;;;4896204;28;20118;-87
2024/01/19 05:49:17;;;;;;;3.15;0.93;;;-0.80;99.90;;;;;;4944079;28;20022;-88
2024/01/19 05:51:43;;;;;;;4.15;1.08;;;-0.80;99.90;;;;;;4902791;28;20025;-86
2024/01/19 05:54:09;;;;;;;3.20;1.05;;;-0.80;99.90;;;;;;4890707;28;20031;-87
2024/01/19 05:56:34;;;;;;;3.33;0.90;;;-0.80;99.90;;;;;;4904467;28;20030;-85
2024/01/19 05:59:00;;;;;;;1.75;1.13;;;-0.80;99.90;;;;;;4888146;28;20081;-87
2024/01/19 06:01:25;;;;;;;4.50;1.27;;;-0.80;99.90;;;;;;4914499;28;20042;-89
2024/01/19 06:03:51;;;;;;;2.63;0.98;;;-0.80;99.90;;;;;;4917912;28;20030;-85
2024/01/19 06:06:17;;;;;;;4.60;1.50;;;-0.70;99.90;;;;;;4894013;28;21255;-85
2024/01/19 06:08:43;;;;;;;4.05;1.42;;;-0.70;99.90;;;;;;4919925;28;20023;-88
2024/01/19 06:11:08;;;;;;;3.25;1.00;;;-0.80;99.90;;;;;;4886390;28;20046;-89
2024/01/19 06:13:34;;;;;;;3.88;1.40;;;-0.70;99.90;;;;;;4891440;28;20030;-88
2024/01/19 06:16:01;;;;;;;2.47;1.60;;;-0.70;99.90;;;;;;4925690;28;20054;-86
2024/01/19 06:18:26;;;;;;;3.53;0.98;;;-0.70;99.90;;;;;;4880663;28;20027;-86
2024/01/19 06:20:52;;;;;;;7.68;1.65;;;-0.70;99.90;;;;;;4909341;28;20031;-86
2024/01/19 06:23:17;;;;;;;4.07;1.60;;;-0.70;99.90;;;;;;4855133;28;20031;-87
2024/01/19 06:25:43;;;;;;;3.13;1.30;;;-0.70;99.90;;;;;;4881301;28;21504;-85
2024/01/19 06:28:09;;;;;;;4.95;2.00;;;-0.70;99.90;;;;;;4939759;28;20038;-87
2024/01/19 06:30:35;;;;;;;3.45;1.60;;;-0.70;99.90;;;;;;4878488;28;20111;-87
2024/01/19 06:33:02;;;;;;;3.30;1.50;;;-0.70;99.90;;;;;;4889451;28;20121;-87
2024/01/19 06:35:28;;;;;;;4.47;1.45;;;-0.70;99.90;;;;;;4917026;28;22110;-86
2024/01/19 06:37:53;;;;;;;2.85;1.55;;;-0.70;99.90;;;;;;4891906;28;20034;-85
2024/01/19 06:40:19;;;;;;;4.35;1.27;;;-0.70;99.90;;;;;;4934134;28;20026;-87
2024/01/19 06:42:45;;;;;;;4.50;1.50;;;-0.70;99.90;;;;;;4903133;28;20034;-85
2024/01/19 06:45:11;;;;;;;5.53;1.50;;;-0.70;99.90;;;;;;4889409;28;20033;-86
2024/01/19 06:47:37;;;;;;;1.63;1.20;;;-0.70;99.90;;;;;;4923733;28;21873;-87
2024/01/19 06:50:03;;;;;;;3.22;1.20;;;-0.70;99.90;;;;;;4907886;28;20026;-85
2024/01/19 06:52:32;;;;;;;4.40;1.20;;;-0.70;99.90;;;;;;4910076;28;20058;-88
2024/01/19 06:54:58;;;;;;;2.55;1.20;;;-0.70;99.90;;;;;;4925282;28;20026;-87
2024/01/19 06:57:23;;;;;;;3.38;1.05;;;-0.80;99.90;;;;;;4864316;28;21075;-87
2024/01/19 06:59:49;;;;;;;4.80;1.20;;;-0.80;99.90;;;;;;4905822;28;20066;-86
2024/01/19 07:02:16;;;;;;;4.43;1.00;;;-0.90;99.90;;;;;;4867068;28;20050;-87
2024/01/19 07:04:42;;;;;;;2.97;1.20;;;-0.90;99.90;;;;;;4880012;28;21469;-88
2024/01/19 07:07:07;;;;;;;3.40;1.00;;;-0.90;99.90;;;;;;4904454;28;20053;-87
2024/01/19 07:09:33;;;;;;;1.45;1.25;;;-0.90;99.90;;;;;;4850190;28;20030;-86
2024/01/19 07:11:58;;;;;;;6.45;1.77;;;-0.90;99.90;;;;;;4899580;28;20038;-87
2024/01/19 07:14:25;;;;;;;3.97;1.30;;;-0.90;99.90;;;;;;4874412;28;20399;-86
2024/01/19 07:16:50;;;;;;;2.58;1.52;;;-1.00;99.90;;;;;;4846351;28;20964;-86
2024/01/19 07:19:16;;;;;;;3.25;1.90;;;-1.00;99.90;;;;;;4915394;28;20027;-86
2024/01/19 07:21:45;;;;;;;4.05;1.65;;;-1.00;99.90;;;;;;4837187;28;20019;-87
2024/01/19 07:24:11;;;;;;;6.90;1.70;;;-1.10;99.90;;;;;;4861530;28;20023;-86
2024/01/19 07:26:38;;;;;;;3.95;1.60;;;-1.20;99.90;;;;;;4899242;28;20023;-87
2024/01/19 07:29:06;;;;;;;2.15;1.40;;;-1.20;99.90;;;;;;4879990;28;20054;-86
2024/01/19 07:31:33;;;;;;;2.15;1.52;;;-1.20;99.90;;;;;;4895935;28;20559;-88
2024/01/19 07:33:59;;;;;;;2.80;1.08;;;-1.30;99.90;;;;;;4935880;28;20030;-87
2024/01/19 07:36:25;;;;;;;5.25;1.63;;;-1.30;99.90;;;;;;4907904;28;20101;-87
2024/01/19 07:38:51;;;;;;;4.63;1.90;;;-1.30;99.90;;;;;;4940119;28;20031;-89
2024/01/19 07:41:17;;;;;;;2.47;1.23;;;-1.30;99.90;;;;;;4946257;28;20032;-89
2024/01/19 07:43:42;;;;;;;3.58;1.55;;;-1.30;99.90;;;;;;4939474;28;20042;-87
2024/01/19 07:46:08;;;;;;;5.47;1.58;;;-1.30;99.90;;;;;;4915292;28;20041;-88
2024/01/19 07:48:33;;;;;;;2.95;1.45;;;-1.30;99.90;;;;;;4885856;28;20022;-86
2024/01/19 07:50:59;;;;;;;2.08;1.60;;;-1.30;99.90;;;;;;4925780;28;20027;-86
2024/01/19 07:53:25;;;;;;;6.32;1.90;;;-1.30;99.90;;;;;;4893496;28;20037;-86
2024/01/19 07:55:50;;;;;;;3.50;1.45;;;-1.30;99.90;;;;;;4912501;28;21166;-87
2024/01/19 07:58:16;;;;;;;1.58;1.35;;;-1.30;99.90;;;;;;4951380;28;20025;-86
2024/01/19 08:00:41;;;;;;;4.38;1.73;;;-1.30;99.90;;;;;;4925943;28;20034;-87
2024/01/19 08:03:08;;;;;;;5.22;1.92;;;-1.30;99.90;;;;;;4868773;28;20022;-87
2024/01/19 08:05:33;;;;;;;2.03;1.38;;;-1.30;99.90;;;;;;4919099;28;20019;-87
2024/01/19 08:08:09;;;;;;;2.97;1.27;;;-1.30;99.90;;;;;;4893731;28;20027;-87
2024/01/19 08:10:36;;;;;;;3.90;1.20;;;-1.30;99.90;;;;;;4864893;28;20066;-87
2024/01/19 08:13:02;;;;;;;7.18;1.98;;;-1.30;99.90;;;;;;4926134;28;20479;-87
2024/01/19 08:15:28;;;;;;;1.80;1.38;;;-1.30;99.90;;;;;;4837247;28;20169;-86
2024/01/19 08:17:54;;;;;;;3.80;1.65;;;-1.30;99.90;;;;;;4907390;28;20475;-87
2024/01/19 08:20:20;;;;;;;3.08;1.40;;;-1.30;99.90;;;;;;4845913;28;20023;-87
2024/01/19 08:22:45;;;;;;;3.60;1.42;;;-1.20;99.90;;;;;;4872972;28;21462;-87
2024/01/19 08:25:11;;;;;;;2.97;1.70;;;-1.20;99.90;;;;;;4905637;28;20105;-86
2024/01/19 08:27:41;;;;;;;5.70;1.67;;;-1.20;99.90;;;;;;4847908;28;20594;-87
2024/01/19 08:30:07;;;;;;;7.18;1.48;;;-1.20;99.90;;;;;;4888458;28;20085;-87
2024/01/19 08:32:34;;;;;;;9.35;2.80;;;-1.20;99.90;;;;;;4905141;28;20035;-86
2024/01/19 08:35:00;;;;;;;9.40;5.20;;;-1.20;99.90;;;;;;4860187;28;20039;-87
2024/01/19 08:37:26;;;;;;;5.47;2.33;;;-1.10;99.90;;;;;;4868169;28;20038;-86
2024/01/19 08:39:51;;;;;;;3.63;1.48;;;-1.10;99.90;;;;;;4853124;28;20340;-86
2024/01/19 08:42:17;;;;;;;5.05;1.63;;;-1.00;99.90;;;;;;4840280;28;21574;-87
2024/01/19 08:44:44;;;;;;;3.65;1.23;;;-1.00;99.90;;;;;;4912061;28;20327;-87
2024/01/19 08:47:10;;;;;;;4.78;1.75;;;-1.00;99.90;;;;;;4804696;28;20081;-86
2024/01/19 08:49:35;;;;;;;7.53;1.70;;;-0.90;99.90;;;;;;4853667;28;20030;-87
2024/01/19 08:52:01;;;;;;;5.15;1.52;;;-0.90;99.90;;;;;;4883628;28;20406;-86
2024/01/19 08:54:27;;;;;;;3.90;1.30;;;-0.90;99.90;;;;;;4859377;28;20118;-87
2024/01/19 08:56:54;;;;;;;6.15;1.63;;;-0.90;99.90;;;;;;4895313;28;20211;-86
2024/01/19 08:59:21;;;;;;;3.72;1.13;;;-0.80;99.90;;;;;;4818858;28;20039;-86
2024/01/19 09:01:47;;;;;;;3.67;1.50;;;-0.80;99.90;;;;;;4840975;28;21260;-86
2024/01/19 09:04:13;;;;;;;4.55;1.45;;;-0.70;99.90;;;;;;4847231;28;20027;-87
2024/01/19 09:06:38;;;;;;;2.42;1.63;;;-0.60;99.90;;;;;;4859333;28;20078;-87
2024/01/19 09:09:04;;;;;;;3.60;1.15;;;-0.50;99.90;;;;;;4853472;28;20503;-87
2024/01/19 09:11:34;;;;;;;3.33;1.33;;;-0.50;99.90;;;;;;4883871;28;21127;-87
2024/01/19 09:14:00;;;;;;;4.35;2.30;;;-0.40;99.90;;;;;;4834330;28;20084;-86
2024/01/19 09:16:25;;;;;;;3.67;1.63;;;-0.40;99.90;;;;;;4897064;28;20748;-88
2024/01/19 09:18:51;;;;;;;4.03;1.50;;;-0.30;99.90;;;;;;4833758;28;20026;-86
2024/01/19 09:21:17;;;;;;;6.25;1.30;;;-0.30;99.90;;;;;;4939457;28;20860;-87
2024/01/19 09:23:43;;;;;;;2.90;1.42;;;-0.40;99.90;;;;;;4935434;28;20050;-86
2024/01/19 09:26:17;;;;;;;2.90;1.10;;;-0.40;99.90;;;;;;4939821;28;20479;-87
2024/01/19 09:28:46;;;;;;;5.78;2.25;;;-0.30;99.90;;;;;;4950444;28;20134;-88
2024/01/19 09:31:13;;;;;;;5.80;1.27;;;-0.20;99.90;;;;;;4942438;28;20027;-86
2024/01/19 09:33:39;;;;;;;3.60;1.35;;;0.00;99.90;;;;;;4937420;28;20027;-86
2024/01/19 09:36:05;;;;;;;5.05;1.35;;;0.00;99.90;;;;;;4935035;28;20058;-84
2024/01/19 09:38:34;;;;;;;3.05;1.05;;;0.10;99.90;;;;;;4938863;28;20129;-87
2024/01/19 09:41:39;;;;;;;4.45;1.55;;;0.20;99.90;;;;;;4938226;28;20031;-87
2024/01/19 09:44:09;;;;;;;5.78;1.40;;;0.20;99.90;;;;;;4932821;28;20509;-86
2024/01/19 09:46:43;;;;;;;5.25;1.52;;;0.20;99.90;;;;;;4931537;28;20174;-85
2024/01/19 09:49:18;;;;;;;3.97;1.63;;;0.20;99.90;;;;;;4964683;28;20023;-85
2024/01/19 09:52:03;;;;;;;7.97;2.20;;;0.30;99.90;;;;;;4951828;28;20081;-86
2024/01/19 09:54:37;;;;;;;2.67;1.55;;;0.30;99.90;;;;;;4920877;28;20235;-86
2024/01/19 09:57:03;;;;;;;5.13;1.63;;;0.30;99.90;;;;;;4959024;28;20023;-85
2024/01/19 09:59:32;;;;;;;2.90;1.98;;;0.40;99.90;;;;;;4960710;28;20046;-86
2024/01/19 10:01:59;;;;;;;6.43;1.80;;;0.40;99.90;;;;;;4946946;28;20041;-87
2024/01/19 10:04:26;;;;;;;10.10;3.67;;;0.30;99.90;;;;;;4945898;28;20479;-87
2024/01/19 10:06:53;;;;;;;4.18;1.85;;;0.30;99.90;;;;;;4950303;28;20031;-87
2024/01/19 10:09:20;;;;;;;5.78;2.35;;;0.30;99.90;;;;;;4950791;28;21428;-87
2024/01/19 10:11:55;;;;;;;4.88;1.58;;;0.30;99.90;;;;;;4966829;28;20019;-87
2024/01/19 10:14:22;;;;;;;7.22;1.58;;;0.40;99.90;;;;;;4951158;28;20546;-86
2024/01/19 10:16:49;;;;;;;8.38;3.25;;;0.40;99.90;;;;;;4963958;28;20436;-87
2024/01/19 10:19:16;;;;;;;6.57;2.20;;;0.40;99.90;;;;;;4951523;28;20623;-88
2024/01/19 10:21:42;;;;;;;11.82;1.77;;;0.50;99.90;;;;;;4950543;28;20102;-86
2024/01/19 10:24:14;;;;;;;6.90;2.50;;;0.60;99.90;;;;;;4951283;28;20037;-87
2024/01/19 10:26:42;;;;;;;9.13;3.63;;;0.60;99.90;;;;;;4966219;28;20122;-87
2024/01/19 10:29:15;;;;;;;3.40;1.48;;;0.60;99.90;;;;;;4946514;28;20034;-87
2024/01/19 10:31:44;;;;;;;5.03;1.92;;;0.70;99.90;;;;;;4950244;28;20035;-85
2024/01/19 10:34:36;;;;;;;8.77;3.42;;;0.90;99.90;;;;;;4948599;28;20394;-88
2024/01/19 10:37:02;;;;;;;3.60;3.28;;;1.00;99.90;;;;;;4950421;28;20038;-87
2024/01/19 10:39:31;;;;;;;4.97;2.03;;;1.20;99.90;;;;;;4951028;28;21139;-87
2024/01/19 10:42:07;;;;;;;8.95;3.50;;;1.30;99.90;;;;;;4964486;28;20431;-85
2024/01/19 10:44:33;;;;;;;;;;;1.20;99.90;;;;;;4966780;28;20019;-87
2024/01/19 10:46:59;;;;;;;1.75;1.02;;;1.20;99.90;;;;;;4969899;28;19964;-88
2024/01/19 10:49:25;;;;;;;6.15;3.65;;;1.10;99.90;;;;;;4951679;28;20031;-88
2024/01/19 10:51:51;;;;;;;8.68;3.70;;;1.10;99.90;;;;;;4949736;28;20388;-86
2024/01/19 10:54:24;;;;;;;12.15;5.78;;;1.10;99.90;;;;;;4948831;28;20391;-87
2024/01/19 10:57:08;;;;;;;7.13;3.47;;;1.10;99.90;;;;;;4961875;28;20093;-87
2024/01/19 10:59:34;;;;;;;6.63;3.40;;;1.20;99.90;;;;;;4962634;28;20027;-86
2024/01/19 11:02:02;;;;;;;22.63;11.13;;;1.30;99.90;;;;;;4947104;28;20427;-86
2024/01/19 11:04:28;;;;;;;8.38;5.15;;;1.30;99.90;;;;;;4946407;28;20038;-85
2024/01/19 11:06:53;;;;;;;6.13;3.15;;;1.50;99.90;;;;;;4947855;28;20023;-86
2024/01/19 11:09:19;;;;;;;5.25;2.80;;;1.50;99.90;;;;;;4945889;28;20026;-85
2024/01/19 11:11:55;;;;;;;3.65;1.63;;;1.50;99.90;;;;;;4967475;28;20070;-85
2024/01/19 11:14:28;;;;;;;5.50;1.73;;;1.40;99.90;;;;;;4951862;28;20031;-86
2024/01/19 11:16:55;;;;;;;1.70;1.25;;;1.40;99.90;;;;;;4953773;28;20026;-87
2024/01/19 11:19:23;;;;;;;4.18;1.52;;;1.30;99.90;;;;;;4949129;28;20034;-86
2024/01/19 11:21:48;;;;;;;4.20;1.30;;;1.30;99.90;;;;;;4960547;28;20117;-86
2024/01/19 11:24:16;;;;;;;8.93;2.13;;;1.30;99.90;;;;;;4947546;28;20452;-86
2024/01/19 11:26:49;;;;;;;6.13;1.80;;;1.30;99.90;;;;;;4963653;28;20031;-86
2024/01/19 11:29:20;;;;;;;8.07;2.05;;;1.20;99.90;;;;;;4950943;28;20027;-87
2024/01/19 11:31:47;;;;;;;8.75;1.52;;;1.20;99.90;;;;;;4956702;28;20475;-87
2024/01/19 11:34:41;;;;;;;5.63;1.88;;;1.20;99.90;;;;;;4963678;28;20128;-87
2024/01/19 11:37:07;;;;;;;4.20;1.42;;;1.10;99.90;;;;;;4963488;28;21000;-86
2024/01/19 11:39:43;;;;;;;6.15;1.55;;;1.00;99.90;;;;;;4964647;28;20065;-86
2024/01/19 11:42:34;;;;;;;4.32;1.30;;;1.00;99.90;;;;;;4962967;28;20085;-85
2024/01/19 11:45:00;;;;;;;7.57;1.48;;;0.90;99.90;;;;;;4951235;28;20126;-87
2024/01/19 11:47:35;;;;;;;4.20;1.55;;;0.90;99.90;;;;;;4960899;28;20093;-85
2024/01/19 11:50:02;;;;;;;3.80;1.77;;;0.90;99.90;;;;;;4969917;28;20106;-86
2024/01/19 11:52:35;;;;;;;5.25;1.63;;;1.00;99.90;;;;;;4958705;28;20030;-86
2024/01/19 11:55:26;;;;;;;2.53;1.27;;;0.90;99.90;;;;;;4956408;28;20126;-86
2024/01/19 11:57:58;;;;;;;3.50;1.42;;;0.90;99.90;;;;;;4974045;28;20034;-86
2024/01/19 12:00:24;;;;;;;2.13;1.10;;;0.80;99.90;;;;;;4964594;28;20027;-86
2024/01/19 12:02:55;;;;;;;6.60;1.92;;;0.80;99.90;;;;;;4968748;28;20406;-84
2024/01/19 12:05:22;;;;;;;4.65;1.52;;;0.80;99.90;;;;;;4963269;28;20046;-85
2024/01/19 12:07:48;;;;;;;7.85;1.67;;;0.70;99.90;;;;;;4969120;28;20475;-86
2024/01/19 12:10:15;;;;;;;3.53;1.85;;;0.70;99.90;;;;;;4959034;28;20028;-85
2024/01/19 12:12:42;;;;;;;2.05;1.40;;;0.70;99.90;;;;;;4959864;28;20027;-86
2024/01/19 12:15:09;;;;;;;6.22;1.67;;;0.70;99.90;;;;;;4957951;28;20259;-86
2024/01/19 12:17:37;;;;;;;3.92;1.60;;;0.80;99.90;;;;;;4954587;28;20114;-85
2024/01/19 12:20:03;;;;;;;2.28;1.50;;;0.90;99.90;;;;;;4964820;28;20031;-84
2024/01/19 12:22:30;;;;;;;5.75;1.58;;;1.00;99.90;;;;;;4975413;28;20022;-86
2024/01/19 12:25:13;;;;;;;6.03;1.83;;;1.10;99.90;;;;;;4961747;28;20023;-86
2024/01/19 12:27:38;;;;;;;3.50;1.55;;;1.10;99.90;;;;;;4961890;28;20017;-85
2024/01/19 12:30:11;;;;;;;2.63;1.33;;;1.10;99.90;;;;;;4958786;28;20035;-86
2024/01/19 12:32:36;;;;;;;3.88;1.27;;;1.00;99.90;;;;;;4962483;28;20027;-86
2024/01/19 12:35:02;;;;;;;4.55;1.70;;;1.00;99.90;;;;;;4965005;28;20081;-86
2024/01/19 12:37:28;;;;;;;1.77;1.30;;;1.00;99.90;;;;;;4955344;28;20031;-88
2024/01/19 12:39:53;;;;;;;2.38;1.70;;;1.00;99.90;;;;;;4956471;28;20030;-89
2024/01/19 12:42:21;;;;;;;3.08;1.45;;;1.10;99.90;;;;;;4956084;28;20039;-87
2024/01/19 12:44:47;;;;;;;1.88;1.35;;;1.10;99.90;;;;;;4957269;28;20054;-86
2024/01/19 12:47:12;;;;;;;8.13;2.08;;;1.20;99.90;;;;;;4960235;28;20031;-87
2024/01/19 12:49:38;;;;;;;2.65;1.15;;;1.20;99.90;;;;;;4956628;28;20038;-88